createdAt,value
2024-03-07T00:00:18.320Z,7.60
2024-03-07T00:02:50.029Z,8.68
2024-03-07T00:05:18.102Z,10.63
2024-03-07T00:07:44.869Z,8.63
2024-03-07T00:10:12.279Z,8.68
2024-03-07T00:12:41.794Z,9.57
2024-03-07T00:15:10.005Z,8.25
2024-03-07T00:17:36.601Z,9.65
2024-03-07T00:20:05.509Z,8.13
2024-03-07T00:22:32.466Z,9.05
2024-03-07T00:24:58.964Z,9.65
2024-03-07T00:27:27.233Z,8.02
2024-03-07T00:29:54.415Z,6.47
2024-03-07T00:32:21.455Z,6.80
2024-03-07T00:34:48.609Z,7.65
2024-03-07T00:37:16.116Z,7.45
2024-03-07T00:39:42.992Z,7.95
2024-03-07T00:42:10.274Z,11.40
2024-03-07T00:44:37.041Z,8.43
2024-03-07T00:47:04.102Z,9.98
2024-03-07T00:49:31.401Z,9.20
2024-03-07T00:52:00.249Z,8.13
2024-03-07T00:54:27.009Z,9.32
2024-03-07T00:56:54.178Z,7.95
2024-03-07T00:59:21.048Z,10.55
2024-03-07T01:01:47.672Z,10.65
2024-03-07T01:04:14.172Z,9.80
2024-03-07T01:06:42.152Z,5.68
2024-03-07T01:09:15.340Z,6.78
2024-03-07T01:11:44.697Z,8.13
2024-03-07T01:14:12.510Z,9.57
2024-03-07T01:16:39.028Z,10.95
2024-03-07T01:19:09.614Z,8.23
2024-03-07T01:21:38.714Z,7.25
2024-03-07T01:24:06.551Z,7.72
2024-03-07T01:26:34.765Z,7.03
2024-03-07T01:29:01.472Z,7.47
2024-03-07T01:31:28.048Z,6.90
2024-03-07T01:33:55.740Z,9.65
2024-03-07T01:36:22.744Z,8.52
2024-03-07T01:38:49.366Z,10.85
2024-03-07T01:41:15.945Z,9.00
2024-03-07T01:43:45.440Z,9.27
2024-03-07T01:46:12.321Z,9.35
2024-03-07T01:48:39.569Z,10.20
2024-03-07T01:51:06.673Z,8.25
2024-03-07T01:53:34.717Z,9.60
2024-03-07T01:56:03.543Z,11.43
2024-03-07T01:58:31.883Z,9.43
2024-03-07T02:00:59.396Z,10.38
2024-03-07T02:03:26.189Z,8.90
2024-03-07T02:05:52.863Z,7.03
2024-03-07T02:08:20.803Z,6.97
2024-03-07T02:10:47.649Z,10.85
2024-03-07T02:13:14.213Z,10.57
2024-03-07T02:15:40.653Z,9.63
2024-03-07T02:18:07.923Z,9.57
2024-03-07T02:20:34.549Z,11.50
2024-03-07T02:23:01.070Z,11.73
2024-03-07T02:25:28.515Z,9.10
2024-03-07T02:27:54.995Z,11.88
2024-03-07T02:30:21.410Z,11.13
2024-03-07T02:32:53.137Z,11.02
2024-03-07T02:35:20.161Z,12.07
2024-03-07T02:37:47.254Z,12.60
2024-03-07T02:40:14.993Z,9.05
2024-03-07T02:42:41.462Z,11.63
2024-03-07T02:45:08.370Z,9.98
2024-03-07T02:47:35.003Z,15.32
2024-03-07T02:50:01.578Z,11.32
2024-03-07T02:52:28.142Z,11.20
2024-03-07T02:54:54.699Z,8.98
2024-03-07T02:57:21.582Z,8.98
2024-03-07T02:59:48.166Z,9.32
2024-03-07T03:02:17.882Z,10.57
2024-03-07T03:04:44.384Z,11.32
2024-03-07T03:07:11.184Z,9.70
2024-03-07T03:09:40.955Z,10.82
2024-03-07T03:12:07.776Z,8.35
2024-03-07T03:14:34.339Z,9.85
2024-03-07T03:17:01.162Z,10.27
2024-03-07T03:19:27.654Z,9.10
2024-03-07T03:21:54.100Z,10.30
2024-03-07T03:24:21.330Z,9.85
2024-03-07T03:26:47.855Z,6.60
2024-03-07T03:29:15.147Z,10.30
2024-03-07T03:31:41.600Z,8.65
2024-03-07T03:34:10.807Z,8.45
2024-03-07T03:36:37.261Z,9.30
2024-03-07T03:39:03.786Z,11.77
2024-03-07T03:41:31.292Z,10.77
2024-03-07T03:43:57.814Z,9.32
2024-03-07T03:46:24.668Z,9.40
2024-03-07T03:48:51.972Z,7.65
2024-03-07T03:51:18.481Z,8.48
2024-03-07T03:53:45.269Z,8.13
2024-03-07T03:56:13.349Z,9.65
2024-03-07T03:58:42.839Z,7.75
2024-03-07T04:01:14.060Z,9.27
2024-03-07T04:03:40.727Z,9.30
2024-03-07T04:06:08.161Z,10.80
2024-03-07T04:08:37.752Z,8.77
2024-03-07T04:11:05.701Z,9.88
2024-03-07T04:13:32.839Z,8.90
2024-03-07T04:16:00.211Z,9.85
2024-03-07T04:18:27.674Z,9.77
2024-03-07T04:20:55.386Z,10.48
2024-03-07T04:23:22.060Z,7.53
2024-03-07T04:25:48.566Z,9.75
2024-03-07T04:28:15.042Z,9.85
2024-03-07T04:30:41.525Z,11.90
2024-03-07T04:33:08.179Z,11.15
2024-03-07T04:35:34.916Z,12.07
2024-03-07T04:38:01.376Z,14.45
2024-03-07T04:40:27.788Z,12.90
2024-03-07T04:42:54.285Z,11.27
2024-03-07T04:45:22.295Z,11.95
2024-03-07T04:47:49.730Z,14.55
2024-03-07T04:50:19.429Z,10.52
2024-03-07T04:52:47.528Z,14.68
2024-03-07T04:55:14.499Z,10.80
2024-03-07T04:57:42.398Z,8.75
2024-03-07T05:00:18.236Z,9.45
2024-03-07T05:02:47.677Z,10.52
2024-03-07T05:05:15.193Z,8.93
2024-03-07T05:07:42.591Z,17.63
2024-03-07T05:10:09.920Z,13.30
2024-03-07T05:12:37.766Z,12.45
2024-03-07T05:15:06.060Z,10.40
2024-03-07T05:17:35.646Z,12.48
2024-03-07T05:20:02.579Z,12.93
2024-03-07T05:22:31.356Z,13.30
2024-03-07T05:24:59.617Z,15.18
2024-03-07T05:27:26.130Z,15.70
2024-03-07T05:29:52.681Z,15.35
2024-03-07T05:32:24.142Z,10.15
2024-03-07T05:34:51.027Z,12.82
2024-03-07T05:37:17.573Z,16.05
2024-03-07T05:39:44.037Z,12.48
2024-03-07T05:42:14.961Z,13.65
2024-03-07T05:44:47.483Z,15.43
2024-03-07T05:47:18.037Z,13.80
2024-03-07T05:49:44.898Z,14.48
2024-03-07T05:52:11.379Z,12.60
2024-03-07T05:54:37.899Z,15.40
2024-03-07T05:57:06.790Z,15.77
2024-03-07T05:59:33.770Z,13.48
2024-03-07T06:02:00.639Z,14.95
2024-03-07T06:04:27.191Z,12.38
2024-03-07T06:06:53.828Z,14.18
2024-03-07T06:09:23.440Z,11.48
2024-03-07T06:11:51.000Z,10.63
2024-03-07T06:14:18.331Z,11.65
2024-03-07T06:16:45.034Z,10.10
2024-03-07T06:19:12.451Z,10.18
2024-03-07T06:21:40.908Z,11.38
2024-03-07T06:24:08.658Z,10.60
2024-03-07T06:26:45.934Z,12.52
2024-03-07T06:29:13.828Z,11.05
2024-03-07T06:31:41.660Z,13.98
2024-03-07T06:34:09.393Z,9.90
2024-03-07T06:36:36.623Z,10.60
2024-03-07T06:39:06.890Z,17.92
2024-03-07T06:41:34.323Z,13.00
2024-03-07T06:44:01.538Z,13.93
2024-03-07T06:46:28.202Z,10.50
2024-03-07T06:48:55.089Z,13.82
2024-03-07T06:51:21.711Z,16.98
2024-03-07T06:53:48.313Z,11.02
2024-03-07T06:56:15.856Z,14.80
2024-03-07T06:58:43.360Z,14.13
2024-03-07T07:01:13.325Z,12.93
2024-03-07T07:03:40.238Z,16.27
2024-03-07T07:06:07.176Z,16.75
2024-03-07T07:08:34.246Z,16.02
2024-03-07T07:11:00.825Z,15.57
2024-03-07T07:13:27.393Z,14.52
2024-03-07T07:15:54.648Z,10.63
2024-03-07T07:18:22.738Z,11.82
2024-03-07T07:20:50.342Z,15.27
2024-03-07T07:23:16.890Z,16.20
2024-03-07T07:25:43.363Z,14.00
2024-03-07T07:28:11.004Z,14.63
2024-03-07T07:30:37.758Z,16.23
2024-03-07T07:33:04.834Z,14.20
2024-03-07T07:35:32.329Z,12.77
2024-03-07T07:37:59.041Z,15.68
2024-03-07T07:40:28.181Z,12.90
2024-03-07T07:42:55.280Z,15.50
2024-03-07T07:45:23.482Z,13.88
2024-03-07T07:47:54.663Z,11.77
2024-03-07T07:50:23.283Z,12.65
2024-03-07T07:52:57.702Z,13.27
2024-03-07T07:55:26.631Z,14.23
2024-03-07T07:58:05.097Z,13.65
2024-03-07T08:00:32.386Z,10.93
2024-03-07T08:03:02.237Z,12.57
2024-03-07T08:05:34.249Z,15.40
2024-03-07T08:08:07.603Z,13.43
2024-03-07T08:10:36.212Z,14.35
2024-03-07T08:13:04.130Z,12.45
2024-03-07T08:15:31.880Z,11.68
2024-03-07T08:17:59.554Z,10.60
2024-03-07T08:20:28.022Z,11.88
2024-03-07T08:22:56.454Z,11.25
2024-03-07T08:25:28.210Z,11.60
2024-03-07T08:27:57.345Z,11.35
2024-03-07T08:30:24.278Z,14.65
2024-03-07T08:32:53.360Z,12.63
2024-03-07T08:35:20.512Z,10.38
2024-03-07T08:37:54.244Z,11.13
2024-03-07T08:40:28.551Z,11.57
2024-03-07T08:42:56.844Z,11.05
2024-03-07T08:45:24.139Z,11.68
2024-03-07T08:47:52.509Z,11.07
2024-03-07T08:50:19.704Z,11.02
2024-03-07T08:52:47.265Z,9.02
2024-03-07T08:55:15.505Z,10.45
2024-03-07T08:57:43.149Z,11.32
2024-03-07T09:00:12.260Z,10.77
2024-03-07T09:02:39.714Z,9.93
2024-03-07T09:05:06.977Z,9.05
2024-03-07T09:07:33.840Z,11.40
2024-03-07T09:10:00.367Z,10.00
2024-03-07T09:12:27.384Z,7.40
2024-03-07T09:14:54.488Z,6.60
2024-03-07T09:17:21.708Z,9.70
2024-03-07T09:19:48.211Z,9.07
2024-03-07T09:22:14.673Z,10.05
2024-03-07T09:24:41.183Z,8.88
2024-03-07T09:27:07.839Z,9.20
2024-03-07T09:29:34.399Z,10.00
2024-03-07T09:32:00.862Z,8.13
2024-03-07T09:34:27.441Z,7.97
2024-03-07T09:36:53.925Z,8.52
2024-03-07T09:39:20.475Z,7.80
2024-03-07T09:41:47.019Z,9.90
2024-03-07T09:44:18.697Z,8.50
2024-03-07T09:46:47.448Z,10.90
2024-03-07T09:49:15.016Z,8.32
2024-03-07T09:51:41.534Z,9.75
2024-03-07T09:54:09.218Z,9.10
2024-03-07T09:56:39.056Z,8.65
2024-03-07T09:59:09.099Z,10.57
2024-03-07T10:01:37.337Z,9.13
2024-03-07T10:04:12.726Z,6.30
2024-03-07T10:06:40.620Z,8.45
2024-03-07T10:09:08.566Z,7.20
2024-03-07T10:11:35.915Z,6.80
2024-03-07T10:14:04.176Z,9.25
2024-03-07T10:16:30.649Z,7.10
2024-03-07T10:18:57.192Z,9.63
2024-03-07T10:21:25.178Z,7.47
2024-03-07T10:23:54.303Z,8.25
2024-03-07T10:26:22.398Z,5.53
2024-03-07T10:28:49.249Z,9.07
2024-03-07T10:31:29.555Z,6.72
2024-03-07T10:34:00.489Z,7.65
2024-03-07T10:36:26.950Z,7.53
2024-03-07T10:38:56.436Z,8.52
2024-03-07T10:41:28.732Z,6.90
2024-03-07T10:43:59.236Z,9.60
2024-03-07T10:46:27.644Z,6.90
2024-03-07T10:48:57.765Z,8.45
2024-03-07T10:51:32.268Z,8.65
2024-03-07T10:54:23.280Z,7.93
2024-03-07T10:57:09.733Z,5.80
2024-03-07T10:59:43.040Z,9.73
2024-03-07T11:02:28.440Z,9.18
2024-03-07T11:04:57.067Z,10.25
2024-03-07T11:07:24.734Z,6.88
2024-03-07T11:09:53.322Z,9.05
2024-03-07T11:12:25.375Z,6.30
2024-03-07T11:14:53.410Z,7.90
2024-03-07T11:17:23.230Z,8.60
2024-03-07T11:19:50.864Z,8.80
2024-03-07T11:22:30.880Z,10.07
2024-03-07T11:25:02.716Z,7.80
2024-03-07T11:27:29.273Z,7.28
2024-03-07T11:29:57.571Z,7.82
2024-03-07T11:32:25.040Z,9.50
2024-03-07T11:34:54.940Z,7.80
2024-03-07T11:37:42.138Z,9.05
2024-03-07T11:40:09.579Z,7.78
2024-03-07T11:42:37.043Z,9.30
2024-03-07T11:45:07.563Z,10.48
2024-03-07T11:50:12.527Z,6.38
2024-03-07T11:52:45.150Z,8.52
2024-03-07T11:55:12.097Z,7.05
2024-03-07T11:57:39.746Z,7.30
2024-03-07T12:00:12.483Z,8.27
2024-03-07T12:02:42.168Z,9.40
2024-03-07T12:05:09.163Z,8.75
2024-03-07T12:07:36.025Z,8.95
2024-03-07T12:10:06.800Z,8.85
2024-03-07T12:12:34.199Z,9.43
2024-03-07T12:15:03.147Z,7.57
2024-03-07T12:17:31.361Z,7.72
2024-03-07T12:20:02.682Z,9.18
2024-03-07T12:22:31.680Z,7.97
2024-03-07T12:25:09.351Z,7.95
2024-03-07T12:27:35.876Z,8.60
2024-03-07T12:30:17.359Z,6.28
2024-03-07T12:32:50.848Z,8.15
2024-03-07T12:35:17.807Z,7.72
2024-03-07T12:37:44.445Z,8.55
2024-03-07T12:40:20.531Z,6.20
2024-03-07T12:42:56.100Z,8.57
2024-03-07T12:45:22.786Z,7.40
2024-03-07T12:47:53.890Z,7.78
2024-03-07T12:50:24.435Z,7.80
2024-03-07T12:52:51.834Z,8.68
2024-03-07T12:55:24.658Z,6.05
2024-03-07T12:57:51.319Z,8.02
2024-03-07T13:00:21.840Z,6.93
2024-03-07T13:02:49.390Z,8.80
2024-03-07T13:05:22.295Z,8.73
2024-03-07T13:07:49.735Z,7.70
2024-03-07T13:10:17.269Z,8.68
2024-03-07T13:12:46.464Z,8.18
2024-03-07T13:15:13.685Z,7.38
2024-03-07T13:17:41.211Z,6.25
2024-03-07T13:20:12.904Z,7.50
2024-03-07T13:22:43.951Z,9.75
2024-03-07T13:25:16.986Z,7.55
2024-03-07T13:28:14.432Z,8.02
2024-03-07T13:30:49.535Z,7.55
2024-03-07T13:33:16.582Z,7.68
2024-03-07T13:35:43.231Z,7.60
2024-03-07T13:38:10.676Z,10.60
2024-03-07T13:40:40.329Z,6.53
2024-03-07T13:43:08.069Z,8.75
2024-03-07T13:45:40.098Z,11.35
2024-03-07T13:48:07.850Z,9.25
2024-03-07T13:50:47.731Z,6.07
2024-03-07T13:53:22.468Z,9.77
2024-03-07T13:55:54.680Z,8.20
2024-03-07T13:58:47.094Z,9.05
2024-03-07T14:01:37.527Z,9.20
2024-03-07T14:04:41.754Z,7.57
2024-03-07T14:07:30.950Z,9.60
2024-03-07T14:10:25.888Z,7.47
2024-03-07T14:13:15.100Z,7.90
2024-03-07T14:16:21.676Z,7.75
2024-03-07T14:19:22.352Z,8.35
2024-03-07T14:22:22.730Z,9.82
2024-03-07T14:25:19.549Z,7.35
2024-03-07T14:28:20.266Z,6.90
2024-03-07T14:30:59.826Z,9.18
2024-03-07T14:33:48.565Z,6.80
2024-03-07T14:36:17.028Z,6.50
2024-03-07T14:38:59.024Z,5.30
2024-03-07T14:41:47.996Z,5.90
2024-03-07T14:44:19.261Z,8.02
2024-03-07T14:46:48.388Z,7.00
2024-03-07T14:49:17.529Z,6.57
2024-03-07T14:51:51.819Z,4.15
2024-03-07T14:54:26.232Z,6.82
2024-03-07T14:56:53.660Z,5.82
2024-03-07T14:59:22.064Z,6.18
2024-03-07T15:01:48.993Z,5.68
2024-03-07T15:04:16.268Z,6.47
2024-03-07T15:06:43.723Z,8.02
2024-03-07T15:09:10.784Z,8.70
2024-03-07T15:11:41.537Z,5.38
2024-03-07T15:14:11.898Z,9.02
2024-03-07T15:16:39.973Z,6.95
2024-03-07T15:19:13.566Z,7.30
2024-03-07T15:21:40.772Z,8.82
2024-03-07T15:24:07.600Z,9.68
2024-03-07T15:26:34.995Z,9.07
2024-03-07T15:29:01.961Z,9.43
2024-03-07T15:31:28.899Z,6.88
2024-03-07T15:33:55.797Z,7.97
2024-03-07T15:36:22.976Z,7.53
2024-03-07T15:38:49.921Z,7.93
2024-03-07T15:41:16.512Z,8.73
2024-03-07T15:43:46.186Z,9.45
2024-03-07T15:46:13.848Z,8.27
2024-03-07T15:48:41.485Z,7.72
2024-03-07T15:51:12.947Z,7.47
2024-03-07T15:53:41.729Z,9.50
2024-03-07T15:56:08.580Z,7.70
2024-03-07T15:58:35.384Z,7.88
2024-03-07T16:01:03.099Z,7.47
2024-03-07T16:03:29.779Z,6.88
2024-03-07T16:05:57.886Z,6.63
2024-03-07T16:08:24.989Z,7.78
2024-03-07T16:10:52.363Z,8.65
2024-03-07T16:13:18.899Z,7.60
2024-03-07T16:15:46.436Z,7.03
2024-03-07T16:18:15.466Z,7.07
2024-03-07T16:20:42.630Z,8.57
2024-03-07T16:23:10.017Z,5.43
2024-03-07T16:25:40.509Z,11.25
2024-03-07T16:28:08.756Z,8.90
2024-03-07T16:30:36.712Z,8.10
2024-03-07T16:33:04.282Z,8.30
2024-03-07T16:35:34.746Z,9.23
2024-03-07T16:38:02.107Z,8.95
2024-03-07T16:40:30.067Z,10.52
2024-03-07T16:43:01.759Z,9.85
2024-03-07T16:45:31.358Z,7.70
2024-03-07T16:48:00.914Z,7.22
2024-03-07T16:50:30.496Z,9.60
2024-03-07T16:53:08.641Z,8.45
2024-03-07T16:55:37.905Z,9.43
2024-03-07T17:00:34.487Z,8.82
2024-03-07T17:03:06.713Z,8.23
2024-03-07T17:05:35.500Z,8.50
2024-03-07T17:08:05.628Z,8.02
2024-03-07T17:10:36.060Z,7.88
2024-03-07T17:13:08.144Z,7.10
2024-03-07T17:15:34.693Z,9.57
2024-03-07T17:18:01.583Z,8.25
2024-03-07T17:20:29.821Z,9.32
2024-03-07T17:22:56.751Z,9.15
2024-03-07T17:25:25.408Z,10.80
2024-03-07T17:27:53.225Z,9.48
2024-03-07T17:30:32.458Z,12.90
2024-03-07T17:33:00.190Z,8.38
2024-03-07T17:35:29.992Z,10.25
2024-03-07T17:37:57.591Z,9.93
2024-03-07T17:40:27.664Z,10.85
2024-03-07T17:42:55.479Z,9.65
2024-03-07T17:45:29.010Z,10.13
2024-03-07T17:47:59.203Z,9.23
2024-03-07T17:50:31.492Z,9.30
2024-03-07T17:53:11.342Z,8.00
2024-03-07T17:55:42.437Z,10.98
2024-03-07T17:58:10.148Z,9.35
2024-03-07T18:00:37.328Z,9.88
2024-03-07T18:03:06.215Z,9.15
2024-03-07T18:05:37.826Z,6.90
2024-03-07T18:08:21.329Z,8.23
2024-03-07T18:10:56.654Z,8.05
2024-03-07T18:13:23.285Z,7.30
2024-03-07T18:15:50.286Z,9.05
2024-03-07T18:18:17.644Z,8.68
2024-03-07T18:20:46.246Z,9.70
2024-03-07T18:23:14.694Z,9.65
2024-03-07T18:25:41.951Z,9.10
2024-03-07T18:28:08.780Z,8.68
2024-03-07T18:30:35.461Z,11.25
2024-03-07T18:33:06.283Z,8.18
2024-03-07T18:35:37.503Z,7.75
2024-03-07T18:38:07.399Z,11.05
2024-03-07T18:40:34.962Z,8.48
2024-03-07T18:43:08.977Z,11.05
2024-03-07T18:45:37.357Z,9.70
2024-03-07T18:48:09.230Z,11.73
2024-03-07T18:50:46.361Z,12.02
2024-03-07T18:53:15.571Z,9.60
2024-03-07T18:55:47.174Z,10.50
2024-03-07T18:58:14.052Z,11.57
2024-03-07T19:00:44.931Z,9.55
2024-03-07T19:03:15.187Z,10.35
2024-03-07T19:05:49.849Z,11.32
2024-03-07T19:08:17.052Z,8.88
2024-03-07T19:10:45.002Z,12.60
2024-03-07T19:13:11.929Z,10.25
2024-03-07T19:15:38.610Z,10.25
2024-03-07T19:18:10.403Z,11.40
2024-03-07T19:20:40.304Z,9.45
2024-03-07T19:23:09.748Z,9.30
2024-03-07T19:25:36.731Z,8.35
2024-03-07T19:28:03.412Z,11.20
2024-03-07T19:30:29.965Z,10.07
2024-03-07T19:32:58.314Z,8.18
2024-03-07T19:35:26.417Z,10.20
2024-03-07T19:37:52.912Z,9.23
2024-03-07T19:40:22.544Z,11.63
2024-03-07T19:42:52.736Z,6.45
2024-03-07T19:45:21.147Z,9.80
2024-03-07T19:47:48.837Z,8.38
2024-03-07T19:50:19.204Z,8.85
2024-03-07T19:52:50.420Z,9.25
2024-03-07T19:55:19.972Z,9.25
2024-03-07T19:57:49.270Z,8.05
2024-03-07T20:00:16.943Z,8.68
2024-03-07T20:02:44.880Z,10.95
2024-03-07T20:05:17.314Z,8.40
2024-03-07T20:07:45.477Z,9.35
2024-03-07T20:10:12.017Z,10.88
2024-03-07T20:12:44.705Z,6.85
2024-03-07T20:15:12.739Z,9.45
2024-03-07T20:17:44.526Z,9.13
2024-03-07T20:20:17.743Z,8.80
2024-03-07T20:22:45.967Z,9.85
2024-03-07T20:25:13.839Z,9.02
2024-03-07T20:27:42.009Z,9.93
2024-03-07T20:30:09.482Z,9.63
2024-03-07T20:32:38.787Z,11.10
2024-03-07T20:35:09.096Z,10.95
2024-03-07T20:37:42.145Z,9.70
2024-03-07T20:40:10.674Z,9.32
2024-03-07T20:42:38.861Z,12.77
2024-03-07T20:45:09.085Z,9.63
2024-03-07T20:47:37.402Z,11.00
2024-03-07T20:50:10.541Z,8.25
2024-03-07T20:52:41.605Z,11.30
2024-03-07T20:55:09.019Z,10.38
2024-03-07T20:57:35.613Z,8.48
2024-03-07T21:00:06.145Z,9.30
2024-03-07T21:02:33.656Z,10.65
2024-03-07T21:05:00.872Z,10.85
2024-03-07T21:07:27.349Z,11.75
2024-03-07T21:09:53.810Z,12.88
2024-03-07T21:12:20.507Z,9.93
2024-03-07T21:14:46.999Z,11.02
2024-03-07T21:17:14.954Z,9.77
2024-03-07T21:19:41.418Z,11.20
2024-03-07T21:22:07.836Z,11.65
2024-03-07T21:24:34.255Z,10.60
2024-03-07T21:27:02.420Z,10.93
2024-03-07T21:29:30.716Z,10.05
2024-03-07T21:31:58.040Z,10.45
2024-03-07T21:34:24.506Z,8.45
2024-03-07T21:36:50.983Z,11.85
2024-03-07T21:39:17.434Z,10.40
2024-03-07T21:41:43.878Z,13.30
2024-03-07T21:44:10.407Z,9.40
2024-03-07T21:46:41.082Z,11.88
2024-03-07T21:49:08.507Z,10.68
2024-03-07T21:51:36.510Z,12.95
2024-03-07T21:54:03.034Z,11.20
2024-03-07T21:56:30.089Z,9.70
2024-03-07T21:58:58.885Z,7.18
2024-03-07T22:01:39.557Z,11.30
2024-03-07T22:04:06.533Z,9.80
2024-03-07T22:06:33.817Z,10.10
2024-03-07T22:09:01.601Z,10.75
2024-03-07T22:11:28.547Z,10.38
2024-03-07T22:13:55.134Z,9.55
2024-03-07T22:16:21.620Z,7.72
2024-03-07T22:18:48.295Z,11.32
2024-03-07T22:21:15.085Z,11.80
2024-03-07T22:23:41.886Z,9.60
2024-03-07T22:26:13.130Z,12.00
2024-03-07T22:28:39.828Z,12.25
2024-03-07T22:31:10.490Z,9.75
2024-03-07T22:33:38.198Z,11.93
2024-03-07T22:36:11.416Z,10.73
2024-03-07T22:38:37.993Z,8.30
2024-03-07T22:41:07.711Z,9.40
2024-03-07T22:43:34.375Z,7.95
2024-03-07T22:46:00.875Z,9.75
2024-03-07T22:48:27.465Z,11.30
2024-03-07T22:50:54.017Z,9.75
2024-03-07T22:53:20.564Z,8.75
2024-03-07T22:55:47.951Z,10.55
2024-03-07T22:58:14.555Z,11.55
2024-03-07T23:00:45.644Z,8.40
2024-03-07T23:03:15.584Z,11.93
2024-03-07T23:05:42.623Z,9.70
2024-03-07T23:08:09.160Z,11.95
2024-03-07T23:10:35.708Z,9.90
2024-03-07T23:13:02.776Z,9.82
2024-03-07T23:15:30.070Z,11.90
2024-03-07T23:17:58.758Z,7.95
2024-03-07T23:20:27.327Z,12.07
2024-03-07T23:22:57.044Z,10.73
2024-03-07T23:25:24.583Z,7.82
2024-03-07T23:27:52.776Z,9.27
2024-03-07T23:30:19.447Z,11.25
2024-03-07T23:32:51.052Z,8.95
2024-03-07T23:35:18.500Z,9.23
2024-03-07T23:37:46.141Z,10.82
2024-03-07T23:40:14.549Z,11.27
2024-03-07T23:42:42.360Z,12.02
2024-03-07T23:45:10.521Z,10.40
2024-03-07T23:47:37.643Z,11.40
2024-03-07T23:50:05.387Z,10.70
2024-03-07T23:52:31.876Z,10.93
2024-03-07T23:54:58.395Z,12.68
2024-03-07T23:57:25.021Z,13.02
2024-03-07T23:59:51.565Z,11.68
